sensor_id;sensor_type;location;lat;lon;timestamp;temperature;humidity
21495;DHT22;10909;53.590;10.054;2022-08-21T00:02:16;21.20;50.40
21495;DHT22;10909;53.590;10.054;2022-08-21T00:04:42;21.20;50.70
21495;DHT22;10909;53.590;10.054;2022-08-21T00:07:07;21.20;50.50
21495;DHT22;10909;53.590;10.054;2022-08-21T00:09:33;21.20;50.70
21495;DHT22;10909;53.590;10.054;2022-08-21T00:11:59;21.10;50.70
21495;DHT22;10909;53.590;10.054;2022-08-21T00:14:24;21.10;50.80
21495;DHT22;10909;53.590;10.054;2022-08-21T00:16:50;21.10;50.90
21495;DHT22;10909;53.590;10.054;2022-08-21T00:19:15;21.00;51.00
21495;DHT22;10909;53.590;10.054;2022-08-21T00:21:41;21.00;51.10
21495;DHT22;10909;53.590;10.054;2022-08-21T00:24:07;21.00;51.20
21495;DHT22;10909;53.590;10.054;2022-08-21T00:26:32;20.90;51.10
21495;DHT22;10909;53.590;10.054;2022-08-21T00:28:58;20.90;51.20
21495;DHT22;10909;53.590;10.054;2022-08-21T00:31:24;20.90;51.30
21495;DHT22;10909;53.590;10.054;2022-08-21T00:33:49;20.90;51.40
21495;DHT22;10909;53.590;10.054;2022-08-21T00:36:15;20.90;51.50
21495;DHT22;10909;53.590;10.054;2022-08-21T00:38:41;20.90;51.60
21495;DHT22;10909;53.590;10.054;2022-08-21T00:41:09;20.80;51.50
21495;DHT22;10909;53.590;10.054;2022-08-21T00:43:37;20.80;51.70
21495;DHT22;10909;53.590;10.054;2022-08-21T00:46:07;20.80;51.60
21495;DHT22;10909;53.590;10.054;2022-08-21T00:48:33;20.70;51.90
21495;DHT22;10909;53.590;10.054;2022-08-21T00:51:11;20.70;51.80
21495;DHT22;10909;53.590;10.054;2022-08-21T00:53:39;20.70;52.40
21495;DHT22;10909;53.590;10.054;2022-08-21T00:56:08;20.60;51.90
21495;DHT22;10909;53.590;10.054;2022-08-21T00:58:35;20.60;52.10
21495;DHT22;10909;53.590;10.054;2022-08-21T01:01:08;20.60;52.20
21495;DHT22;10909;53.590;10.054;2022-08-21T01:03:35;20.60;52.60
21495;DHT22;10909;53.590;10.054;2022-08-21T01:06:07;20.60;52.20
21495;DHT22;10909;53.590;10.054;2022-08-21T01:08:34;20.60;52.60
21495;DHT22;10909;53.590;10.054;2022-08-21T01:11:02;20.60;52.40
21495;DHT22;10909;53.590;10.054;2022-08-21T01:13:35;20.50;52.50
21495;DHT22;10909;53.590;10.054;2022-08-21T01:16:08;20.50;52.70
21495;DHT22;10909;53.590;10.054;2022-08-21T01:18:34;20.50;52.90
21495;DHT22;10909;53.590;10.054;2022-08-21T01:21:08;20.50;52.80
21495;DHT22;10909;53.590;10.054;2022-08-21T01:23:36;20.50;53.20
21495;DHT22;10909;53.590;10.054;2022-08-21T01:26:07;20.40;53.00
21495;DHT22;10909;53.590;10.054;2022-08-21T01:28:40;20.40;53.10
21495;DHT22;10909;53.590;10.054;2022-08-21T01:31:08;20.40;53.30
21495;DHT22;10909;53.590;10.054;2022-08-21T01:33:35;20.40;53.20
21495;DHT22;10909;53.590;10.054;2022-08-21T01:36:01;20.30;53.30
21495;DHT22;10909;53.590;10.054;2022-08-21T01:38:27;20.30;53.30
21495;DHT22;10909;53.590;10.054;2022-08-21T01:40:53;20.30;54.10
21495;DHT22;10909;53.590;10.054;2022-08-21T01:43:18;20.30;53.50
21495;DHT22;10909;53.590;10.054;2022-08-21T01:45:44;20.30;53.60
21495;DHT22;10909;53.590;10.054;2022-08-21T01:48:10;20.30;53.70
21495;DHT22;10909;53.590;10.054;2022-08-21T01:50:35;20.30;53.70
21495;DHT22;10909;53.590;10.054;2022-08-21T01:53:01;20.30;54.40
21495;DHT22;10909;53.590;10.054;2022-08-21T01:55:27;20.30;53.90
21495;DHT22;10909;53.590;10.054;2022-08-21T01:57:53;20.30;54.00
21495;DHT22;10909;53.590;10.054;2022-08-21T02:00:26;20.30;54.10
21495;DHT22;10909;53.590;10.054;2022-08-21T02:02:52;20.30;54.20
21495;DHT22;10909;53.590;10.054;2022-08-21T02:05:19;20.20;54.10
21495;DHT22;10909;53.590;10.054;2022-08-21T02:07:48;20.20;54.20
21495;DHT22;10909;53.590;10.054;2022-08-21T02:10:16;20.20;54.30
21495;DHT22;10909;53.590;10.054;2022-08-21T02:12:43;20.20;54.40
21495;DHT22;10909;53.590;10.054;2022-08-21T02:15:09;20.20;54.40
21495;DHT22;10909;53.590;10.054;2022-08-21T02:17:44;20.10;54.30
21495;DHT22;10909;53.590;10.054;2022-08-21T02:20:16;20.10;54.70
21495;DHT22;10909;53.590;10.054;2022-08-21T02:22:43;20.10;54.40
21495;DHT22;10909;53.590;10.054;2022-08-21T02:25:08;20.10;54.30
21495;DHT22;10909;53.590;10.054;2022-08-21T02:27:42;20.10;54.50
21495;DHT22;10909;53.590;10.054;2022-08-21T02:30:14;20.00;54.70
21495;DHT22;10909;53.590;10.054;2022-08-21T02:32:40;20.00;54.60
21495;DHT22;10909;53.590;10.054;2022-08-21T02:35:06;19.90;54.60
21495;DHT22;10909;53.590;10.054;2022-08-21T02:37:32;19.90;54.70
21495;DHT22;10909;53.590;10.054;2022-08-21T02:40:00;19.90;54.80
21495;DHT22;10909;53.590;10.054;2022-08-21T02:42:26;19.80;54.90
21495;DHT22;10909;53.590;10.054;2022-08-21T02:44:52;19.80;55.00
21495;DHT22;10909;53.590;10.054;2022-08-21T02:47:17;19.70;55.10
21495;DHT22;10909;53.590;10.054;2022-08-21T02:49:43;19.70;55.20
21495;DHT22;10909;53.590;10.054;2022-08-21T02:52:09;19.60;55.20
21495;DHT22;10909;53.590;10.054;2022-08-21T02:54:34;19.60;55.30
21495;DHT22;10909;53.590;10.054;2022-08-21T02:57:00;19.60;55.40
21495;DHT22;10909;53.590;10.054;2022-08-21T02:59:25;19.60;55.40
21495;DHT22;10909;53.590;10.054;2022-08-21T03:01:51;19.50;55.40
21495;DHT22;10909;53.590;10.054;2022-08-21T03:04:17;19.50;55.50
21495;DHT22;10909;53.590;10.054;2022-08-21T03:06:42;19.50;55.50
21495;DHT22;10909;53.590;10.054;2022-08-21T03:09:08;19.40;55.60
21495;DHT22;10909;53.590;10.054;2022-08-21T03:11:34;19.40;55.70
21495;DHT22;10909;53.590;10.054;2022-08-21T03:14:06;19.40;55.70
21495;DHT22;10909;53.590;10.054;2022-08-21T03:16:32;19.40;56.00
21495;DHT22;10909;53.590;10.054;2022-08-21T03:18:58;19.30;55.80
21495;DHT22;10909;53.590;10.054;2022-08-21T03:21:24;19.30;56.00
21495;DHT22;10909;53.590;10.054;2022-08-21T03:23:49;19.30;56.10
21495;DHT22;10909;53.590;10.054;2022-08-21T03:26:15;19.30;56.10
21495;DHT22;10909;53.590;10.054;2022-08-21T03:28:41;19.30;56.30
21495;DHT22;10909;53.590;10.054;2022-08-21T03:31:06;19.30;56.30
21495;DHT22;10909;53.590;10.054;2022-08-21T03:33:32;19.30;56.30
21495;DHT22;10909;53.590;10.054;2022-08-21T03:36:17;19.30;56.30
21495;DHT22;10909;53.590;10.054;2022-08-21T03:38:43;19.30;57.00
21495;DHT22;10909;53.590;10.054;2022-08-21T03:41:09;19.30;56.30
21495;DHT22;10909;53.590;10.054;2022-08-21T03:43:35;19.30;56.30
21495;DHT22;10909;53.590;10.054;2022-08-21T03:46:03;19.20;56.30
21495;DHT22;10909;53.590;10.054;2022-08-21T03:48:32;19.20;56.40
21495;DHT22;10909;53.590;10.054;2022-08-21T03:50:58;19.20;56.40
21495;DHT22;10909;53.590;10.054;2022-08-21T03:53:24;19.20;56.90
21495;DHT22;10909;53.590;10.054;2022-08-21T03:55:51;19.20;56.40
21495;DHT22;10909;53.590;10.054;2022-08-21T03:58:20;19.20;56.60
21495;DHT22;10909;53.590;10.054;2022-08-21T04:00:49;19.10;56.50
21495;DHT22;10909;53.590;10.054;2022-08-21T04:03:15;19.10;56.60
21495;DHT22;10909;53.590;10.054;2022-08-21T04:05:41;19.10;56.60
21495;DHT22;10909;53.590;10.054;2022-08-21T04:08:07;19.10;56.60
21495;DHT22;10909;53.590;10.054;2022-08-21T04:10:35;19.10;56.70
21495;DHT22;10909;53.590;10.054;2022-08-21T04:13:03;19.10;56.80
21495;DHT22;10909;53.590;10.054;2022-08-21T04:15:29;19.00;56.80
21495;DHT22;10909;53.590;10.054;2022-08-21T04:17:55;19.00;56.80
21495;DHT22;10909;53.590;10.054;2022-08-21T04:20:21;19.00;56.80
21495;DHT22;10909;53.590;10.054;2022-08-21T04:22:48;19.00;57.00
21495;DHT22;10909;53.590;10.054;2022-08-21T04:25:15;19.00;57.00
21495;DHT22;10909;53.590;10.054;2022-08-21T04:27:41;19.00;57.10
21495;DHT22;10909;53.590;10.054;2022-08-21T04:30:07;19.00;57.10
21495;DHT22;10909;53.590;10.054;2022-08-21T04:32:38;19.00;57.20
21495;DHT22;10909;53.590;10.054;2022-08-21T04:35:06;19.00;57.10
21495;DHT22;10909;53.590;10.054;2022-08-21T04:37:32;19.00;57.20
21495;DHT22;10909;53.590;10.054;2022-08-21T04:39:58;19.00;57.30
21495;DHT22;10909;53.590;10.054;2022-08-21T04:42:27;19.00;57.30
21495;DHT22;10909;53.590;10.054;2022-08-21T04:44:54;19.00;57.50
21495;DHT22;10909;53.590;10.054;2022-08-21T04:47:20;19.00;57.40
21495;DHT22;10909;53.590;10.054;2022-08-21T04:49:46;19.00;57.50
21495;DHT22;10909;53.590;10.054;2022-08-21T04:52:14;19.00;57.60
21495;DHT22;10909;53.590;10.054;2022-08-21T04:54:42;19.00;57.60
21495;DHT22;10909;53.590;10.054;2022-08-21T04:57:09;19.00;57.60
21495;DHT22;10909;53.590;10.054;2022-08-21T04:59:39;19.10;57.70
21495;DHT22;10909;53.590;10.054;2022-08-21T05:02:08;19.10;57.70
21495;DHT22;10909;53.590;10.054;2022-08-21T05:04:37;19.10;57.80
21495;DHT22;10909;53.590;10.054;2022-08-21T05:07:11;19.10;57.80
21495;DHT22;10909;53.590;10.054;2022-08-21T05:09:38;19.10;57.90
21495;DHT22;10909;53.590;10.054;2022-08-21T05:12:10;19.10;57.70
21495;DHT22;10909;53.590;10.054;2022-08-21T05:14:36;19.20;58.10
21495;DHT22;10909;53.590;10.054;2022-08-21T05:17:09;19.20;57.90
21495;DHT22;10909;53.590;10.054;2022-08-21T05:19:36;19.20;58.20
21495;DHT22;10909;53.590;10.054;2022-08-21T05:22:02;19.20;58.00
21495;DHT22;10909;53.590;10.054;2022-08-21T05:24:34;19.30;58.10
21495;DHT22;10909;53.590;10.054;2022-08-21T05:27:00;19.30;58.20
21495;DHT22;10909;53.590;10.054;2022-08-21T05:29:27;19.40;58.20
21495;DHT22;10909;53.590;10.054;2022-08-21T05:31:56;19.40;58.10
21495;DHT22;10909;53.590;10.054;2022-08-21T05:34:22;19.50;58.20
21495;DHT22;10909;53.590;10.054;2022-08-21T05:36:48;19.50;58.20
21495;DHT22;10909;53.590;10.054;2022-08-21T05:39:14;19.60;58.00
21495;DHT22;10909;53.590;10.054;2022-08-21T05:41:40;19.60;58.00
21495;DHT22;10909;53.590;10.054;2022-08-21T05:44:06;19.70;58.00
21495;DHT22;10909;53.590;10.054;2022-08-21T05:46:31;19.70;57.90
21495;DHT22;10909;53.590;10.054;2022-08-21T05:48:57;19.80;57.90
21495;DHT22;10909;53.590;10.054;2022-08-21T05:51:23;19.80;57.80
21495;DHT22;10909;53.590;10.054;2022-08-21T05:53:48;19.90;57.80
21495;DHT22;10909;53.590;10.054;2022-08-21T05:56:14;19.90;57.80
21495;DHT22;10909;53.590;10.054;2022-08-21T05:58:40;19.90;57.80
21495;DHT22;10909;53.590;10.054;2022-08-21T06:01:06;20.00;57.80
21495;DHT22;10909;53.590;10.054;2022-08-21T06:03:38;20.00;57.60
21495;DHT22;10909;53.590;10.054;2022-08-21T06:06:07;20.10;57.70
21495;DHT22;10909;53.590;10.054;2022-08-21T06:08:33;20.10;57.70
21495;DHT22;10909;53.590;10.054;2022-08-21T06:11:00;20.20;57.60
21495;DHT22;10909;53.590;10.054;2022-08-21T06:13:27;20.20;57.50
21495;DHT22;10909;53.590;10.054;2022-08-21T06:16:14;20.20;57.50
21495;DHT22;10909;53.590;10.054;2022-08-21T06:18:40;20.20;57.90
21495;DHT22;10909;53.590;10.054;2022-08-21T06:21:08;20.30;57.60
21495;DHT22;10909;53.590;10.054;2022-08-21T06:23:34;20.30;57.60
21495;DHT22;10909;53.590;10.054;2022-08-21T06:26:07;20.40;57.70
21495;DHT22;10909;53.590;10.054;2022-08-21T06:28:33;20.50;57.70
21495;DHT22;10909;53.590;10.054;2022-08-21T06:31:00;20.50;57.40
21495;DHT22;10909;53.590;10.054;2022-08-21T06:33:26;20.50;57.10
21495;DHT22;10909;53.590;10.054;2022-08-21T06:35:52;20.60;57.10
21495;DHT22;10909;53.590;10.054;2022-08-21T06:38:18;20.50;57.00
21495;DHT22;10909;53.590;10.054;2022-08-21T06:40:44;20.60;57.00
21495;DHT22;10909;53.590;10.054;2022-08-21T06:43:12;20.60;57.00
21495;DHT22;10909;53.590;10.054;2022-08-21T06:45:38;20.60;57.10
21495;DHT22;10909;53.590;10.054;2022-08-21T06:48:04;20.60;56.90
21495;DHT22;10909;53.590;10.054;2022-08-21T06:50:32;20.70;56.80
21495;DHT22;10909;53.590;10.054;2022-08-21T06:53:05;20.70;56.70
21495;DHT22;10909;53.590;10.054;2022-08-21T06:55:31;20.70;56.60
21495;DHT22;10909;53.590;10.054;2022-08-21T06:57:57;20.70;56.40
21495;DHT22;10909;53.590;10.054;2022-08-21T07:00:22;20.70;56.40
21495;DHT22;10909;53.590;10.054;2022-08-21T07:02:48;20.80;56.40
21495;DHT22;10909;53.590;10.054;2022-08-21T07:05:14;20.80;56.30
21495;DHT22;10909;53.590;10.054;2022-08-21T07:07:39;20.80;56.20
21495;DHT22;10909;53.590;10.054;2022-08-21T07:10:05;20.90;56.30
21495;DHT22;10909;53.590;10.054;2022-08-21T07:12:34;20.90;56.20
21495;DHT22;10909;53.590;10.054;2022-08-21T07:14:59;20.90;56.20
21495;DHT22;10909;53.590;10.054;2022-08-21T07:17:25;20.90;56.10
21495;DHT22;10909;53.590;10.054;2022-08-21T07:19:50;21.00;56.10
21495;DHT22;10909;53.590;10.054;2022-08-21T07:22:19;21.00;56.10
21495;DHT22;10909;53.590;10.054;2022-08-21T07:24:46;21.10;56.00
21495;DHT22;10909;53.590;10.054;2022-08-21T07:27:12;21.10;56.00
21495;DHT22;10909;53.590;10.054;2022-08-21T07:29:37;21.20;56.00
21495;DHT22;10909;53.590;10.054;2022-08-21T07:32:04;21.30;55.90
21495;DHT22;10909;53.590;10.054;2022-08-21T07:34:30;21.30;55.60
21495;DHT22;10909;53.590;10.054;2022-08-21T07:36:57;21.40;55.60
21495;DHT22;10909;53.590;10.054;2022-08-21T07:39:22;21.40;55.30
21495;DHT22;10909;53.590;10.054;2022-08-21T07:41:48;21.50;55.20
21495;DHT22;10909;53.590;10.054;2022-08-21T07:44:14;21.60;55.10
21495;DHT22;10909;53.590;10.054;2022-08-21T07:46:39;21.60;55.00
21495;DHT22;10909;53.590;10.054;2022-08-21T07:49:05;21.70;55.00
21495;DHT22;10909;53.590;10.054;2022-08-21T07:51:30;21.80;54.90
21495;DHT22;10909;53.590;10.054;2022-08-21T07:53:58;21.80;54.90
21495;DHT22;10909;53.590;10.054;2022-08-21T07:56:29;21.90;54.70
21495;DHT22;10909;53.590;10.054;2022-08-21T07:58:55;22.00;54.60
21495;DHT22;10909;53.590;10.054;2022-08-21T08:01:23;22.00;54.60
21495;DHT22;10909;53.590;10.054;2022-08-21T08:03:48;22.10;54.50
21495;DHT22;10909;53.590;10.054;2022-08-21T08:06:14;22.20;54.40
21495;DHT22;10909;53.590;10.054;2022-08-21T08:08:42;22.20;54.30
21495;DHT22;10909;53.590;10.054;2022-08-21T08:11:09;22.30;54.10
21495;DHT22;10909;53.590;10.054;2022-08-21T08:13:49;22.40;54.10
21495;DHT22;10909;53.590;10.054;2022-08-21T08:16:15;22.50;54.10
21495;DHT22;10909;53.590;10.054;2022-08-21T08:18:41;22.50;54.10
21495;DHT22;10909;53.590;10.054;2022-08-21T08:21:08;22.60;54.00
21495;DHT22;10909;53.590;10.054;2022-08-21T08:23:34;22.70;53.90
21495;DHT22;10909;53.590;10.054;2022-08-21T08:26:00;22.80;53.80
21495;DHT22;10909;53.590;10.054;2022-08-21T08:28:28;22.80;53.70
21495;DHT22;10909;53.590;10.054;2022-08-21T08:30:54;22.90;54.30
21495;DHT22;10909;53.590;10.054;2022-08-21T08:33:21;22.90;53.60
21495;DHT22;10909;53.590;10.054;2022-08-21T08:35:49;23.00;53.60
21495;DHT22;10909;53.590;10.054;2022-08-21T08:38:16;23.10;53.60
21495;DHT22;10909;53.590;10.054;2022-08-21T08:40:47;23.10;53.50
21495;DHT22;10909;53.590;10.054;2022-08-21T08:43:17;23.20;53.50
21495;DHT22;10909;53.590;10.054;2022-08-21T08:45:46;23.30;53.40
21495;DHT22;10909;53.590;10.054;2022-08-21T08:48:16;23.30;53.30
21495;DHT22;10909;53.590;10.054;2022-08-21T08:51:24;23.40;53.20
21495;DHT22;10909;53.590;10.054;2022-08-21T08:53:59;23.50;53.00
21495;DHT22;10909;53.590;10.054;2022-08-21T08:56:31;23.60;53.20
21495;DHT22;10909;53.590;10.054;2022-08-21T08:59:02;23.60;53.10
21495;DHT22;10909;53.590;10.054;2022-08-21T09:01:32;23.70;53.00
21495;DHT22;10909;53.590;10.054;2022-08-21T09:03:58;23.80;53.10
21495;DHT22;10909;53.590;10.054;2022-08-21T09:06:44;23.90;52.90
21495;DHT22;10909;53.590;10.054;2022-08-21T09:09:34;23.90;52.50
21495;DHT22;10909;53.590;10.054;2022-08-21T09:12:19;24.10;52.30
21495;DHT22;10909;53.590;10.054;2022-08-21T09:15:21;24.10;52.20
21495;DHT22;10909;53.590;10.054;2022-08-21T09:23:38;24.20;51.80
21495;DHT22;10909;53.590;10.054;2022-08-21T09:26:15;24.30;51.80
21495;DHT22;10909;53.590;10.054;2022-08-21T09:28:42;24.30;51.70
21495;DHT22;10909;53.590;10.054;2022-08-21T09:31:16;24.40;51.80
21495;DHT22;10909;53.590;10.054;2022-08-21T09:33:46;24.50;51.70
21495;DHT22;10909;53.590;10.054;2022-08-21T09:36:12;24.50;51.60
21495;DHT22;10909;53.590;10.054;2022-08-21T09:38:52;24.60;51.40
21495;DHT22;10909;53.590;10.054;2022-08-21T09:41:27;24.70;51.20
21495;DHT22;10909;53.590;10.054;2022-08-21T09:43:53;24.80;51.10
21495;DHT22;10909;53.590;10.054;2022-08-21T09:46:24;24.80;51.00
21495;DHT22;10909;53.590;10.054;2022-08-21T09:48:53;24.90;50.60
21495;DHT22;10909;53.590;10.054;2022-08-21T09:51:28;25.00;50.60
21495;DHT22;10909;53.590;10.054;2022-08-21T09:57:05;25.10;50.30
21495;DHT22;10909;53.590;10.054;2022-08-21T09:59:46;25.20;50.20
21495;DHT22;10909;53.590;10.054;2022-08-21T10:02:30;25.30;50.20
21495;DHT22;10909;53.590;10.054;2022-08-21T10:05:07;25.30;49.90
21495;DHT22;10909;53.590;10.054;2022-08-21T10:07:37;25.40;49.90
21495;DHT22;10909;53.590;10.054;2022-08-21T10:10:19;25.50;49.90
21495;DHT22;10909;53.590;10.054;2022-08-21T10:18:18;25.70;49.60
21495;DHT22;10909;53.590;10.054;2022-08-21T10:23:42;25.90;49.50
21495;DHT22;10909;53.590;10.054;2022-08-21T10:26:35;26.10;49.30
21495;DHT22;10909;53.590;10.054;2022-08-21T10:29:39;26.10;48.50
21495;DHT22;10909;53.590;10.054;2022-08-21T10:35:25;26.20;48.50
21495;DHT22;10909;53.590;10.054;2022-08-21T10:44:04;26.40;48.40
21495;DHT22;10909;53.590;10.054;2022-08-21T10:46:47;26.40;48.20
21495;DHT22;10909;53.590;10.054;2022-08-21T10:55:42;26.50;47.60
21495;DHT22;10909;53.590;10.054;2022-08-21T10:58:40;26.50;47.20
21495;DHT22;10909;53.590;10.054;2022-08-21T11:01:44;26.60;47.30
21495;DHT22;10909;53.590;10.054;2022-08-21T11:04:21;26.60;47.30
21495;DHT22;10909;53.590;10.054;2022-08-21T11:07:02;26.70;47.20
21495;DHT22;10909;53.590;10.054;2022-08-21T11:09:30;26.70;46.80
21495;DHT22;10909;53.590;10.054;2022-08-21T11:17:32;26.90;45.70
21495;DHT22;10909;53.590;10.054;2022-08-21T11:20:12;26.90;45.60
21495;DHT22;10909;53.590;10.054;2022-08-21T11:22:51;26.90;45.00
21495;DHT22;10909;53.590;10.054;2022-08-21T11:25:26;26.90;45.40
21495;DHT22;10909;53.590;10.054;2022-08-21T11:30:33;27.00;44.20
21495;DHT22;10909;53.590;10.054;2022-08-21T11:41:25;27.00;43.90
21495;DHT22;10909;53.590;10.054;2022-08-21T11:44:13;27.00;43.60
21495;DHT22;10909;53.590;10.054;2022-08-21T11:54:35;27.40;43.20
21495;DHT22;10909;53.590;10.054;2022-08-21T12:02:56;27.60;42.40
21495;DHT22;10909;53.590;10.054;2022-08-21T12:05:32;27.60;42.40
21495;DHT22;10909;53.590;10.054;2022-08-21T12:08:29;27.60;42.00
21495;DHT22;10909;53.590;10.054;2022-08-21T12:13:39;27.50;41.70
21495;DHT22;10909;53.590;10.054;2022-08-21T12:21:51;27.60;41.60
21495;DHT22;10909;53.590;10.054;2022-08-21T12:24:20;27.60;40.90
21495;DHT22;10909;53.590;10.054;2022-08-21T12:27:44;27.70;41.80
21495;DHT22;10909;53.590;10.054;2022-08-21T12:30:44;27.80;41.30
21495;DHT22;10909;53.590;10.054;2022-08-21T12:33:27;27.80;40.80
21495;DHT22;10909;53.590;10.054;2022-08-21T12:36:04;27.80;41.10
21495;DHT22;10909;53.590;10.054;2022-08-21T12:41:21;28.00;41.00
21495;DHT22;10909;53.590;10.054;2022-08-21T12:44:09;28.20;42.00
21495;DHT22;10909;53.590;10.054;2022-08-21T12:46:43;28.50;41.10
21495;DHT22;10909;53.590;10.054;2022-08-21T12:49:43;28.90;42.00
21495;DHT22;10909;53.590;10.054;2022-08-21T12:52:20;29.40;41.00
21495;DHT22;10909;53.590;10.054;2022-08-21T12:54:46;29.80;41.80
21495;DHT22;10909;53.590;10.054;2022-08-21T12:57:21;30.20;41.20
21495;DHT22;10909;53.590;10.054;2022-08-21T13:00:00;30.60;40.10
21495;DHT22;10909;53.590;10.054;2022-08-21T13:02:30;31.00;39.50
21495;DHT22;10909;53.590;10.054;2022-08-21T13:05:01;31.20;38.50
21495;DHT22;10909;53.590;10.054;2022-08-21T13:07:30;31.20;38.10
21495;DHT22;10909;53.590;10.054;2022-08-21T13:10:14;31.20;37.70
21495;DHT22;10909;53.590;10.054;2022-08-21T13:12:42;31.30;38.10
21495;DHT22;10909;53.590;10.054;2022-08-21T13:15:08;31.50;38.40
21495;DHT22;10909;53.590;10.054;2022-08-21T13:17:38;31.60;37.50
21495;DHT22;10909;53.590;10.054;2022-08-21T13:20:18;31.60;37.00
21495;DHT22;10909;53.590;10.054;2022-08-21T13:22:45;31.70;36.60
21495;DHT22;10909;53.590;10.054;2022-08-21T13:25:14;31.80;37.40
21495;DHT22;10909;53.590;10.054;2022-08-21T13:27:43;32.10;37.80
21495;DHT22;10909;53.590;10.054;2022-08-21T13:30:20;32.50;38.00
21495;DHT22;10909;53.590;10.054;2022-08-21T13:32:50;33.00;36.00
21495;DHT22;10909;53.590;10.054;2022-08-21T13:35:22;33.50;36.80
21495;DHT22;10909;53.590;10.054;2022-08-21T13:37:49;34.00;35.70
21495;DHT22;10909;53.590;10.054;2022-08-21T13:40:20;34.40;34.70
21495;DHT22;10909;53.590;10.054;2022-08-21T13:42:47;34.80;34.30
21495;DHT22;10909;53.590;10.054;2022-08-21T13:45:23;35.10;33.60
21495;DHT22;10909;53.590;10.054;2022-08-21T13:47:50;35.10;32.10
21495;DHT22;10909;53.590;10.054;2022-08-21T13:50:18;34.90;31.50
21495;DHT22;10909;53.590;10.054;2022-08-21T13:52:53;34.60;31.20
21495;DHT22;10909;53.590;10.054;2022-08-21T13:55:20;34.20;31.10
21495;DHT22;10909;53.590;10.054;2022-08-21T13:57:45;33.80;31.00
21495;DHT22;10909;53.590;10.054;2022-08-21T14:00:17;33.40;31.20
21495;DHT22;10909;53.590;10.054;2022-08-21T14:02:46;33.00;31.20
21495;DHT22;10909;53.590;10.054;2022-08-21T14:05:31;32.70;31.40
21495;DHT22;10909;53.590;10.054;2022-08-21T14:08:04;32.30;31.60
21495;DHT22;10909;53.590;10.054;2022-08-21T14:10:30;32.00;31.80
21495;DHT22;10909;53.590;10.054;2022-08-21T14:13:05;31.80;32.50
21495;DHT22;10909;53.590;10.054;2022-08-21T14:15:32;31.70;32.70
21495;DHT22;10909;53.590;10.054;2022-08-21T14:18:16;31.70;33.30
21495;DHT22;10909;53.590;10.054;2022-08-21T14:20:43;31.90;33.40
21495;DHT22;10909;53.590;10.054;2022-08-21T14:23:10;32.30;34.50
21495;DHT22;10909;53.590;10.054;2022-08-21T14:25:42;32.80;34.80
21495;DHT22;10909;53.590;10.054;2022-08-21T14:30:42;33.40;32.80
21495;DHT22;10909;53.590;10.054;2022-08-21T14:33:18;33.50;32.30
21495;DHT22;10909;53.590;10.054;2022-08-21T14:35:46;33.50;31.90
21495;DHT22;10909;53.590;10.054;2022-08-21T14:38:17;33.40;32.00
21495;DHT22;10909;53.590;10.054;2022-08-21T14:40:45;33.20;31.70
21495;DHT22;10909;53.590;10.054;2022-08-21T14:43:12;33.00;31.60
21495;DHT22;10909;53.590;10.054;2022-08-21T14:45:38;32.80;31.40
21495;DHT22;10909;53.590;10.054;2022-08-21T14:48:06;32.60;31.70
21495;DHT22;10909;53.590;10.054;2022-08-21T14:50:33;32.30;31.70
21495;DHT22;10909;53.590;10.054;2022-08-21T14:52:58;32.10;31.80
21495;DHT22;10909;53.590;10.054;2022-08-21T14:55:24;31.80;31.90
21495;DHT22;10909;53.590;10.054;2022-08-21T14:57:52;31.60;31.90
21495;DHT22;10909;53.590;10.054;2022-08-21T15:00:21;31.30;32.10
21495;DHT22;10909;53.590;10.054;2022-08-21T15:02:51;31.10;32.30
21495;DHT22;10909;53.590;10.054;2022-08-21T15:05:17;31.00;33.00
21495;DHT22;10909;53.590;10.054;2022-08-21T15:07:44;31.20;34.30
21495;DHT22;10909;53.590;10.054;2022-08-21T15:10:11;31.30;33.40
21495;DHT22;10909;53.590;10.054;2022-08-21T15:12:37;31.40;32.90
21495;DHT22;10909;53.590;10.054;2022-08-21T15:15:07;31.60;33.70
21495;DHT22;10909;53.590;10.054;2022-08-21T15:17:33;32.00;33.80
21495;DHT22;10909;53.590;10.054;2022-08-21T15:19:59;32.40;33.80
21495;DHT22;10909;53.590;10.054;2022-08-21T15:22:25;32.80;33.80
21495;DHT22;10909;53.590;10.054;2022-08-21T15:24:51;33.30;33.80
21495;DHT22;10909;53.590;10.054;2022-08-21T15:27:17;33.80;33.70
21495;DHT22;10909;53.590;10.054;2022-08-21T15:29:50;34.50;33.50
21495;DHT22;10909;53.590;10.054;2022-08-21T15:32:25;35.10;33.20
21495;DHT22;10909;53.590;10.054;2022-08-21T15:34:54;35.80;32.50
21495;DHT22;10909;53.590;10.054;2022-08-21T15:37:20;36.40;31.70
21495;DHT22;10909;53.590;10.054;2022-08-21T15:39:46;36.90;31.20
21495;DHT22;10909;53.590;10.054;2022-08-21T15:42:12;37.40;30.00
21495;DHT22;10909;53.590;10.054;2022-08-21T15:44:39;37.70;29.90
21495;DHT22;10909;53.590;10.054;2022-08-21T15:47:17;37.90;29.20
21495;DHT22;10909;53.590;10.054;2022-08-21T15:49:43;38.10;29.20
21495;DHT22;10909;53.590;10.054;2022-08-21T15:52:18;38.40;29.20
21495;DHT22;10909;53.590;10.054;2022-08-21T15:54:46;38.70;28.10
21495;DHT22;10909;53.590;10.054;2022-08-21T15:57:14;38.90;28.10
21495;DHT22;10909;53.590;10.054;2022-08-21T15:59:43;39.10;27.80
21495;DHT22;10909;53.590;10.054;2022-08-21T16:02:21;38.90;26.70
21495;DHT22;10909;53.590;10.054;2022-08-21T16:04:48;38.60;26.40
21495;DHT22;10909;53.590;10.054;2022-08-21T16:07:13;38.00;26.30
21495;DHT22;10909;53.590;10.054;2022-08-21T16:09:40;37.30;26.20
21495;DHT22;10909;53.590;10.054;2022-08-21T16:12:08;36.60;26.60
21495;DHT22;10909;53.590;10.054;2022-08-21T16:14:36;36.00;27.00
21495;DHT22;10909;53.590;10.054;2022-08-21T16:17:05;35.40;27.20
21495;DHT22;10909;53.590;10.054;2022-08-21T16:19:31;34.80;27.50
21495;DHT22;10909;53.590;10.054;2022-08-21T16:21:56;34.30;27.90
21495;DHT22;10909;53.590;10.054;2022-08-21T16:24:23;33.90;28.20
21495;DHT22;10909;53.590;10.054;2022-08-21T16:26:49;33.50;28.40
21495;DHT22;10909;53.590;10.054;2022-08-21T16:29:15;33.10;28.70
21495;DHT22;10909;53.590;10.054;2022-08-21T16:31:41;32.80;29.00
21495;DHT22;10909;53.590;10.054;2022-08-21T16:34:18;32.50;29.20
21495;DHT22;10909;53.590;10.054;2022-08-21T16:36:46;32.20;29.50
21495;DHT22;10909;53.590;10.054;2022-08-21T16:39:12;32.10;29.60
21495;DHT22;10909;53.590;10.054;2022-08-21T16:41:38;31.90;29.90
21495;DHT22;10909;53.590;10.054;2022-08-21T16:44:05;31.70;30.00
21495;DHT22;10909;53.590;10.054;2022-08-21T16:46:34;31.60;30.10
21495;DHT22;10909;53.590;10.054;2022-08-21T16:49:01;31.40;30.20